Time;durP1;ratioP1;P1;durP2;ratioP2;P2;SDS_P1;SDS_P2;PMS_P1;PMS_P2;Temp;Humidity;BMP_temperature;BMP_pressure;BME280_temperature;BME280_humidity;BME280_pressure;Samples;Min_cycle;Max_cycle;Signal;HPM_P1;HPM_P2
2022/10/15 00:01:36;;;;;;;42.08;31.05;;;;;;;10.54;100.00;99327.78;5095052;28;20426;-81
2022/10/15 00:04:03;;;;;;;39.55;29.55;;;;;;;10.52;100.00;99330.44;5095439;28;20020;-81
2022/10/15 00:06:28;;;;;;;41.10;31.35;;;;;;;10.49;100.00;99328.84;5094932;28;20067;-81
2022/10/15 00:08:54;;;;;;;46.55;32.65;;;;;;;10.40;100.00;99315.44;5095228;28;20188;-81
2022/10/15 00:11:22;;;;;;;42.55;30.70;;;;;;;10.46;100.00;99329.00;5095119;28;20423;-81
2022/10/15 00:13:48;;;;;;;42.42;30.50;;;;;;;10.44;100.00;99327.38;5094661;28;20020;-81
2022/10/15 00:16:17;;;;;;;43.95;32.85;;;;;;;10.42;100.00;99324.03;5095015;28;20115;-81
2022/10/15 00:18:43;;;;;;;48.15;32.47;;;;;;;10.35;100.00;99312.25;5094851;28;20055;-81
2022/10/15 00:21:11;;;;;;;46.10;32.72;;;;;;;10.30;100.00;99294.25;5094882;28;20055;-81
2022/10/15 00:23:37;;;;;;;41.58;31.10;;;;;;;10.33;100.00;99306.28;5094656;28;20071;-81
2022/10/15 00:26:04;;;;;;;43.13;32.15;;;;;;;10.19;100.00;99286.09;5094679;28;20028;-81
2022/10/15 00:28:29;;;;;;;43.30;31.55;;;;;;;10.22;100.00;99298.97;5094748;28;20027;-81
2022/10/15 00:31:03;;;;;;;47.05;32.03;;;;;;;10.26;100.00;99304.91;5094877;28;20036;-81
2022/10/15 00:33:28;;;;;;;45.63;30.17;;;;;;;10.23;100.00;99304.09;5094445;28;20126;-81
2022/10/15 00:36:09;;;;;;;39.90;30.35;;;;;;;10.22;100.00;99309.38;5094278;28;20408;-81
2022/10/15 00:38:35;;;;;;;39.38;29.58;;;;;;;10.20;100.00;99298.22;5094217;28;20024;-81
2022/10/15 00:41:03;;;;;;;46.28;33.70;;;;;;;10.16;100.00;99292.34;5094865;28;20085;-80
2022/10/15 00:43:40;;;;;;;41.40;30.70;;;;;;;10.11;100.00;99286.53;5094373;28;20020;-81
2022/10/15 00:46:14;;;;;;;42.10;31.27;;;;;;;10.11;100.00;99288.25;5094445;28;20031;-81
2022/10/15 00:48:40;;;;;;;41.47;29.73;;;;;;;10.06;100.00;99283.28;5094039;28;20451;-81
2022/10/15 00:51:05;;;;;;;44.53;32.78;;;;;;;10.03;100.00;99286.06;5094223;28;20043;-81
2022/10/15 00:53:31;;;;;;;48.97;33.35;;;;;;;10.03;100.00;99285.19;5094236;28;20021;-81
2022/10/15 00:55:58;;;;;;;41.97;31.08;;;;;;;9.99;100.00;99281.94;5094722;28;20522;-81
2022/10/15 00:58:27;;;;;;;40.05;31.23;;;;;;;10.02;100.00;99278.31;5094589;28;20028;-81
2022/10/15 01:00:55;;;;;;;38.53;31.33;;;;;;;9.94;100.00;99258.75;5093845;28;20505;-81
2022/10/15 01:03:21;;;;;;;44.50;30.33;;;;;;;9.97;100.00;99265.53;5092715;28;20026;-81
2022/10/15 01:05:49;;;;;;;42.17;30.10;;;;;;;9.93;100.00;99267.44;5093695;28;20028;-81
2022/10/15 01:08:15;;;;;;;38.17;29.75;;;;;;;9.94;100.00;99270.88;5094157;28;20375;-81
2022/10/15 01:10:54;;;;;;;42.67;30.35;;;;;;;9.91;100.00;99258.91;5094133;28;20031;-81
2022/10/15 01:13:28;;;;;;;38.30;30.05;;;;;;;9.96;100.00;99269.91;5094257;28;20028;-81
2022/10/15 01:16:00;;;;;;;40.20;30.60;;;;;;;9.97;100.00;99258.56;5093670;28;20031;-81
2022/10/15 01:18:33;;;;;;;41.63;31.27;;;;;;;9.97;100.00;99252.53;5094074;28;20150;-81
2022/10/15 01:21:30;;;;;;;45.22;30.95;;;;;;;9.90;100.00;99226.00;5093873;28;20108;-81
2022/10/15 01:24:13;;;;;;;44.97;32.95;;;;;;;9.99;100.00;99235.09;5031086;28;20040;-81
2022/10/15 01:27:09;;;;;;;46.55;33.60;;;;;;;9.98;100.00;99236.00;5014275;28;20220;-81
2022/10/15 01:30:02;;;;;;;43.00;31.40;;;;;;;9.96;100.00;99243.06;5030715;28;20096;-81
2022/10/15 01:32:33;;;;;;;44.58;31.23;;;;;;;9.96;100.00;99245.66;5030907;28;20059;-81
2022/10/15 01:35:26;;;;;;;50.03;34.20;;;;;;;9.96;100.00;99235.25;5030822;28;20517;-81
2022/10/15 01:37:58;;;;;;;43.10;32.63;;;;;;;9.91;100.00;99224.25;5030476;28;20029;-81
2022/10/15 01:40:35;;;;;;;50.70;33.90;;;;;;;9.92;100.00;99220.72;5030727;28;20043;-81
2022/10/15 01:43:03;;;;;;;47.70;32.83;;;;;;;9.89;100.00;99211.28;5030730;28;20598;-81
2022/10/15 01:45:36;;;;;;;42.60;32.90;;;;;;;9.92;100.00;99211.16;5030705;28;20101;-81
2022/10/15 01:48:05;;;;;;;43.05;31.25;;;;;;;9.86;100.00;99197.59;5029893;28;20076;-81
2022/10/15 01:50:34;;;;;;;47.53;31.02;;;;;;;9.82;100.00;99191.72;5030646;28;20498;-80
2022/10/15 01:53:03;;;;;;;46.60;32.97;;;;;;;9.88;100.00;99194.00;5014007;28;20539;-81
2022/10/15 01:55:30;;;;;;;40.22;30.08;;;;;;;9.91;100.00;99206.88;5030421;28;20040;-81
2022/10/15 01:57:57;;;;;;;46.13;32.15;;;;;;;9.83;100.00;99192.56;5030146;28;20562;-81
2022/10/15 02:00:23;;;;;;;39.65;31.63;;;;;;;9.91;100.00;99201.66;5044308;28;20032;-81
2022/10/15 02:02:48;;;;;;;42.53;32.38;;;;;;;9.88;100.00;99193.16;5093052;28;20073;-81
2022/10/15 02:05:22;;;;;;;39.60;30.25;;;;;;;9.81;100.00;99184.00;5093004;28;20028;-81
2022/10/15 02:08:06;;;;;;;39.95;30.88;;;;;;;9.88;100.00;99198.38;5092462;28;20440;-81
2022/10/15 02:10:48;;;;;;;45.30;31.95;;;;;;;9.78;100.00;99176.38;5093012;28;20051;-81
2022/10/15 02:13:53;;;;;;;44.80;31.80;;;;;;;9.89;100.00;99189.66;5091598;28;20416;-81
2022/10/15 02:16:39;;;;;;;45.83;32.28;;;;;;;9.85;100.00;99178.56;5010427;28;20378;-81
2022/10/15 02:19:32;;;;;;;43.03;31.95;;;;;;;9.92;100.00;99186.91;5010466;28;20083;-81
2022/10/15 02:22:17;;;;;;;42.97;30.95;;;;;;;9.88;100.00;99186.22;5010010;28;20026;-81
2022/10/15 02:24:54;;;;;;;44.58;33.55;;;;;;;9.90;100.00;99181.78;5010083;28;20053;-81
2022/10/15 02:27:21;;;;;;;44.60;32.42;;;;;;;9.87;100.00;99174.13;5010240;28;20038;-81
2022/10/15 02:29:49;;;;;;;45.20;32.95;;;;;;;9.88;100.00;99173.19;5010033;28;20030;-81
2022/10/15 02:32:17;;;;;;;45.33;33.03;;;;;;;9.88;100.00;99172.38;5010334;28;20057;-81
2022/10/15 02:34:45;;;;;;;50.65;34.95;;;;;;;9.88;100.00;99170.59;5009985;28;20124;-81
2022/10/15 02:37:11;;;;;;;45.05;33.15;;;;;;;9.82;100.00;99157.91;5010216;28;20044;-80
2022/10/15 02:39:36;;;;;;;48.95;33.10;;;;;;;9.85;100.00;99155.13;5009774;28;20038;-81
2022/10/15 02:42:02;;;;;;;46.47;32.50;;;;;;;9.88;100.00;99159.34;5009993;28;20053;-81
2022/10/15 02:44:28;;;;;;;49.70;34.85;;;;;;;9.83;100.00;99151.78;4993513;28;20029;-81
2022/10/15 02:46:55;;;;;;;41.55;31.23;;;;;;;9.79;100.00;99152.88;5009770;28;20049;-81
2022/10/15 02:49:20;;;;;;;43.50;31.48;;;;;;;9.86;100.00;99153.38;5009989;28;20068;-81
2022/10/15 02:51:45;;;;;;;46.38;34.00;;;;;;;9.91;100.00;99165.25;5012455;28;20026;-81
2022/10/15 02:54:11;;;;;;;47.58;32.40;;;;;;;9.99;100.00;99154.44;5092062;28;20024;-81
2022/10/15 02:56:38;;;;;;;41.95;32.00;;;;;;;9.98;100.00;99137.97;5092114;28;20020;-81
2022/10/15 02:59:04;;;;;;;43.50;32.22;;;;;;;10.05;100.00;99148.91;5092149;28;20016;-81
2022/10/15 03:01:30;;;;;;;47.90;33.65;;;;;;;10.02;100.00;99122.22;5092072;28;20027;-81
2022/10/15 03:03:55;;;;;;;47.03;33.03;;;;;;;10.06;100.00;99124.56;5091848;28;20017;-81
2022/10/15 03:06:21;;;;;;;49.72;34.20;;;;;;;10.11;100.00;99132.13;5091984;28;20442;-81
2022/10/15 03:08:46;;;;;;;49.78;35.20;;;;;;;10.09;100.00;99136.59;5092071;28;20459;-81
2022/10/15 03:11:12;;;;;;;44.30;31.98;;;;;;;10.07;100.00;99121.06;5092081;28;20049;-81
2022/10/15 03:13:38;;;;;;;46.25;32.63;;;;;;;10.11;100.00;99116.50;5092038;28;20107;-81
2022/10/15 03:16:05;;;;;;;42.63;33.22;;;;;;;10.08;100.00;99130.53;5092030;28;20099;-81
2022/10/15 03:18:31;;;;;;;46.17;31.80;;;;;;;10.04;100.00;99131.63;5091981;28;20021;-81
2022/10/15 03:20:57;;;;;;;43.28;32.15;;;;;;;10.04;100.00;99125.59;5091613;28;20023;-81
2022/10/15 03:23:23;;;;;;;47.63;33.05;;;;;;;10.06;100.00;99126.34;5091841;28;20069;-81
2022/10/15 03:25:48;;;;;;;45.30;33.03;;;;;;;10.10;100.00;99131.28;5091621;28;20035;-81
2022/10/15 03:28:13;;;;;;;41.33;31.30;;;;;;;10.06;100.00;99123.72;5091881;28;20020;-81
2022/10/15 03:30:39;;;;;;;47.97;33.05;;;;;;;10.07;100.00;99115.00;5091665;28;20344;-81
2022/10/15 03:33:04;;;;;;;40.47;30.67;;;;;;;10.09;100.00;99113.16;5091859;28;20371;-81
2022/10/15 03:35:30;;;;;;;40.83;30.52;;;;;;;10.13;100.00;99110.31;5091772;28;20640;-81
2022/10/15 03:37:55;;;;;;;45.50;33.45;;;;;;;10.13;100.00;99109.47;5091489;28;20834;-81
2022/10/15 03:40:20;;;;;;;43.20;30.88;;;;;;;10.22;100.00;99112.41;5091847;28;20020;-81
2022/10/15 03:42:50;;;;;;;41.65;30.90;;;;;;;10.18;100.00;99094.47;5090391;28;20020;-81
2022/10/15 03:45:16;;;;;;;45.38;32.55;;;;;;;10.17;100.00;99111.00;5090551;28;20050;-81
2022/10/15 03:47:42;;;;;;;43.75;31.35;;;;;;;10.23;100.00;99116.69;5091478;28;20031;-81
2022/10/15 03:50:08;;;;;;;41.95;31.33;;;;;;;10.24;100.00;99113.22;5091703;28;20020;-81
2022/10/15 03:52:34;;;;;;;46.67;32.20;;;;;;;10.23;100.00;99095.03;5091775;28;20439;-81
2022/10/15 03:55:00;;;;;;;52.67;32.22;;;;;;;10.33;100.00;99103.25;5091606;28;20031;-81
2022/10/15 03:57:25;;;;;;;41.55;31.73;;;;;;;10.37;100.00;99096.94;5091934;28;20024;-81
2022/10/15 03:59:50;;;;;;;42.65;30.70;;;;;;;10.42;100.00;99108.78;5091385;28;20099;-81
2022/10/15 04:02:16;;;;;;;44.05;31.15;;;;;;;10.40;100.00;99099.38;5091444;28;20024;-81
2022/10/15 04:04:41;;;;;;;41.13;31.25;;;;;;;10.37;100.00;99097.78;5091241;28;20023;-81
2022/10/15 04:07:06;;;;;;;43.85;30.80;;;;;;;10.41;100.00;99101.91;5091501;28;20036;-81
2022/10/15 04:09:32;;;;;;;43.25;30.48;;;;;;;10.49;100.00;99106.66;5091498;28;20016;-81
2022/10/15 04:11:57;;;;;;;39.42;29.60;;;;;;;10.47;100.00;99083.31;5093791;28;20119;-81
2022/10/15 04:14:22;;;;;;;39.05;29.73;;;;;;;10.47;100.00;99075.50;5095090;28;20024;-81
2022/10/15 04:16:48;;;;;;;41.03;29.58;;;;;;;10.46;100.00;99067.81;5095125;28;20027;-81
2022/10/15 04:19:13;;;;;;;45.67;31.55;;;;;;;10.57;100.00;99081.03;5094920;28;20363;-81
2022/10/15 04:21:38;;;;;;;44.22;30.73;;;;;;;10.62;100.00;99073.84;5094788;28;20099;-81
2022/10/15 04:24:04;;;;;;;41.25;29.15;;;;;;;10.68;100.00;99085.66;5094762;28;20051;-81
2022/10/15 04:26:29;;;;;;;38.47;28.52;;;;;;;10.69;100.00;99082.97;5094945;28;20019;-81
2022/10/15 04:28:55;;;;;;;38.05;27.23;;;;;;;10.65;100.00;99075.41;5094625;28;20016;-81
2022/10/15 04:31:20;;;;;;;40.38;28.95;;;;;;;10.67;100.00;99078.78;5094875;28;20094;-81
2022/10/15 04:33:49;;;;;;;37.42;29.08;;;;;;;10.75;100.00;99084.41;5094550;28;20016;-81
2022/10/15 04:36:14;;;;;;;38.35;28.50;;;;;;;10.83;100.00;99096.97;5094596;28;20047;-81
2022/10/15 04:38:40;;;;;;;35.28;27.20;;;;;;;10.83;100.00;99096.97;5095074;28;20027;-81
2022/10/15 04:41:08;;;;;;;37.65;28.08;;;;;;;10.84;100.00;99096.06;5094335;28;20016;-81
2022/10/15 04:43:34;;;;;;;38.35;28.38;;;;;;;10.82;100.00;99093.53;5094584;28;20028;-81
2022/10/15 04:46:01;;;;;;;39.00;27.38;;;;;;;10.85;100.00;99097.75;5094225;28;20458;-81
2022/10/15 04:48:28;;;;;;;39.80;28.42;;;;;;;10.80;100.00;99079.78;5094700;28;20042;-81
2022/10/15 04:50:54;;;;;;;38.97;29.75;;;;;;;10.83;100.00;99084.81;5094259;28;20043;-81
2022/10/15 04:53:20;;;;;;;38.08;27.40;;;;;;;10.87;100.00;99090.66;5093195;28;20016;-81
2022/10/15 04:55:45;;;;;;;35.80;27.92;;;;;;;10.83;100.00;99082.22;5094113;28;20027;-81
2022/10/15 04:58:11;;;;;;;37.72;29.00;;;;;;;10.75;100.00;99066.19;5094284;28;20401;-81
2022/10/15 05:00:37;;;;;;;37.03;29.35;;;;;;;10.86;100.00;99087.22;5094500;28;20020;-81
2022/10/15 05:03:05;;;;;;;43.75;31.20;;;;;;;10.77;100.00;99066.91;5093916;28;20032;-81
2022/10/15 05:05:30;;;;;;;44.70;29.52;;;;;;;10.82;100.00;99093.53;5094414;28;20067;-81
2022/10/15 05:08:03;;;;;;;39.67;28.50;;;;;;;10.71;100.00;99069.88;5094024;28;20433;-81
2022/10/15 05:10:29;;;;;;;42.05;29.88;;;;;;;10.75;100.00;99084.41;5094094;28;20020;-81
2022/10/15 05:12:54;;;;;;;49.20;32.90;;;;;;;10.71;100.00;99069.88;5093675;28;20453;-81
2022/10/15 05:15:19;;;;;;;50.25;35.85;;;;;;;10.73;100.00;99081.88;5093931;28;20027;-81
2022/10/15 05:17:45;;;;;;;51.40;34.38;;;;;;;10.76;100.00;99083.47;5093937;28;20390;-81
2022/10/15 05:20:10;;;;;;;50.75;35.45;;;;;;;10.61;100.00;99066.09;5093727;28;20493;-81
2022/10/15 05:22:35;;;;;;;54.63;36.45;;;;;;;10.65;100.00;99067.59;5092706;28;20035;-81
2022/10/15 05:25:01;;;;;;;59.58;38.17;;;;;;;10.60;100.00;99061.81;5093523;28;20058;-81
2022/10/15 05:27:26;;;;;;;47.70;36.53;;;;;;;10.56;100.00;99053.34;5093778;28;20020;-81
2022/10/15 05:29:51;;;;;;;50.85;37.03;;;;;;;10.60;100.00;99056.63;5093695;28;20455;-81
2022/10/15 05:32:17;;;;;;;49.17;34.45;;;;;;;10.59;100.00;99055.78;5093503;28;20020;-81
2022/10/15 05:34:42;;;;;;;47.58;35.28;;;;;;;10.54;100.00;99051.75;5093202;28;20459;-81
2022/10/15 05:37:07;;;;;;;50.10;33.78;;;;;;;10.56;100.00;99057.72;5093370;28;20020;-81
2022/10/15 05:39:33;;;;;;;55.42;37.15;;;;;;;10.58;100.00;99067.13;5093471;28;20111;-81
2022/10/15 05:41:58;;;;;;;48.97;36.10;;;;;;;10.60;100.00;99074.84;5093198;28;20104;-81
2022/10/15 05:44:23;;;;;;;52.97;35.83;;;;;;;10.60;100.00;99067.88;5093284;28;20099;-81
2022/10/15 05:46:49;;;;;;;48.17;34.60;;;;;;;10.62;100.00;99073.84;5093308;28;20405;-81
2022/10/15 05:49:14;;;;;;;46.05;34.03;;;;;;;10.65;100.00;99078.84;5092056;28;20459;-82
2022/10/15 05:51:39;;;;;;;52.40;35.72;;;;;;;10.60;100.00;99064.41;5093336;28;20028;-82
2022/10/15 05:54:05;;;;;;;53.30;35.13;;;;;;;10.64;100.00;99071.13;5092974;28;20016;-82
2022/10/15 05:56:30;;;;;;;48.50;34.88;;;;;;;10.65;100.00;99072.81;5093377;28;20073;-81
2022/10/15 05:58:56;;;;;;;49.35;34.70;;;;;;;10.58;100.00;99061.91;5092875;28;20126;-81
2022/10/15 06:01:22;;;;;;;52.45;36.53;;;;;;;10.64;100.00;99079.78;5092912;28;20120;-82
2022/10/15 06:03:47;;;;;;;47.50;32.63;;;;;;;10.60;100.00;99067.03;5092761;28;20078;-81
2022/10/15 06:06:17;;;;;;;48.42;33.28;;;;;;;10.73;100.00;99094.06;5092724;28;20048;-81
2022/10/15 06:08:42;;;;;;;43.67;31.48;;;;;;;10.76;100.00;99096.50;5092999;28;20026;-81
2022/10/15 06:11:07;;;;;;;49.80;34.97;;;;;;;10.78;100.00;99093.78;5092692;28;20024;-81
2022/10/15 06:13:33;;;;;;;47.25;34.10;;;;;;;10.69;100.00;99087.34;5091439;28;20024;-81
2022/10/15 06:15:58;;;;;;;49.08;35.03;;;;;;;10.76;100.00;99098.28;5092665;28;20103;-81
2022/10/15 06:18:23;;;;;;;51.25;33.25;;;;;;;10.80;100.00;99102.38;5092758;28;20099;-81
2022/10/15 06:20:52;;;;;;;44.58;32.65;;;;;;;10.79;100.00;99096.34;5092826;28;20465;-81
2022/10/15 06:23:18;;;;;;;55.22;36.08;;;;;;;10.82;100.00;99095.31;5092985;28;20077;-81
2022/10/15 06:25:43;;;;;;;53.15;35.05;;;;;;;10.76;100.00;99087.84;5091251;28;20028;-81
2022/10/15 06:28:09;;;;;;;44.47;32.58;;;;;;;10.82;100.00;99090.09;5092570;28;20065;-81
2022/10/15 06:30:34;;;;;;;57.92;37.63;;;;;;;10.89;100.00;99087.06;5092415;28;20024;-81
2022/10/15 06:33:00;;;;;;;54.50;36.95;;;;;;;11.02;100.00;99099.41;5092361;28;20027;-81
2022/10/15 06:35:26;;;;;;;55.08;37.50;;;;;;;11.00;100.00;99094.28;5092351;28;20429;-81
2022/10/15 06:37:52;;;;;;;54.85;37.45;;;;;;;11.06;100.00;99108.72;5092207;28;20069;-81
2022/10/15 06:40:17;;;;;;;51.17;35.70;;;;;;;11.08;100.00;99105.09;5092279;28;20031;-81
2022/10/15 06:42:43;;;;;;;48.38;33.88;;;;;;;11.05;100.00;99110.50;5092644;28;20362;-81
2022/10/15 06:45:09;;;;;;;48.63;34.83;;;;;;;11.10;100.00;99120.66;5091996;28;20022;-81
2022/10/15 06:47:35;;;;;;;51.17;34.65;;;;;;;11.07;100.00;99119.03;5092114;28;20531;-82
2022/10/15 06:50:01;;;;;;;52.13;35.10;;;;;;;11.10;100.00;99121.47;5092285;28;20032;-82
2022/10/15 06:52:29;;;;;;;46.42;34.72;;;;;;;11.13;100.00;99115.28;5092120;28;20463;-81
2022/10/15 06:54:54;;;;;;;56.10;37.17;;;;;;;11.23;100.00;99119.84;5091825;28;20359;-82
2022/10/15 06:57:19;;;;;;;50.83;34.88;;;;;;;11.28;100.00;99114.38;5090450;28;20359;-81
2022/10/15 06:59:44;;;;;;;48.00;32.55;;;;;;;11.26;100.00;99123.22;5091955;28;20027;-81
2022/10/15 07:02:12;;;;;;;45.92;33.35;;;;;;;11.23;100.00;99117.25;5092189;28;20040;-81
2022/10/15 07:04:38;;;;;;;47.80;33.22;;;;;;;11.24;100.00;99110.25;5092217;28;20024;-82
2022/10/15 07:07:03;;;;;;;45.35;31.80;;;;;;;11.31;100.00;99121.19;5091868;28;20115;-82
2022/10/15 07:09:29;;;;;;;45.42;33.03;;;;;;;11.27;100.00;99115.31;5092008;28;20268;-81
2022/10/15 07:11:54;;;;;;;45.78;32.17;;;;;;;11.40;100.00;99105.84;5090295;28;20177;-81
2022/10/15 07:14:19;;;;;;;41.30;31.42;;;;;;;11.55;100.00;99108.47;5090751;28;20086;-81
2022/10/15 07:16:45;;;;;;;47.95;33.42;;;;;;;11.69;100.00;99129.34;5091848;28;20459;-81
2022/10/15 07:19:10;;;;;;;44.70;30.48;;;;;;;11.65;100.00;99126.09;5091590;28;20049;-81
2022/10/15 07:21:35;;;;;;;43.47;31.85;;;;;;;11.65;100.00;99117.44;5091918;28;20020;-81
2022/10/15 07:24:01;;;;;;;46.08;33.75;;;;;;;11.70;100.00;99128.41;5091931;28;20517;-81
2022/10/15 07:26:29;;;;;;;45.35;32.97;;;;;;;11.72;100.00;99121.34;5091856;28;20486;-81
2022/10/15 07:28:55;;;;;;;42.05;31.02;;;;;;;11.84;100.00;99132.84;5091521;28;20103;-81
2022/10/15 07:31:21;;;;;;;44.10;31.85;;;;;;;11.87;100.00;99130.88;5091641;28;20077;-81
2022/10/15 07:33:46;;;;;;;45.83;33.83;;;;;;;11.91;100.00;99135.00;5092004;28;20020;-81
2022/10/15 07:36:12;;;;;;;40.80;31.02;;;;;;;11.83;100.00;99128.56;5091695;28;20015;-81
2022/10/15 07:38:39;;;;;;;46.63;32.00;;;;;;;11.86;100.00;99134.44;5092156;28;20060;-81
2022/10/15 07:41:05;;;;;;;46.30;32.90;;;;;;;11.90;100.00;99137.72;5091428;28;20020;-81
2022/10/15 07:43:31;;;;;;;48.10;32.55;;;;;;;11.96;100.00;99138.16;5091589;28;20471;-81
2022/10/15 07:45:56;;;;;;;42.47;31.95;;;;;;;12.09;100.00;99135.63;5091423;28;20031;-81
2022/10/15 07:48:22;;;;;;;45.17;32.78;;;;;;;12.15;100.00;99134.44;5095721;28;20095;-81
2022/10/15 07:50:53;;;;;;;44.72;34.20;;;;;;;12.26;100.00;99131.16;5095631;28;20027;-81
2022/10/15 07:53:18;;;;;;;53.60;38.05;;;;;;;12.33;100.00;99120.25;5095258;28;20062;-81
2022/10/15 07:55:44;;;;;;;52.35;36.35;;;;;;;12.53;100.00;99133.84;5095393;28;20048;-81
2022/10/15 07:58:09;;;;;;;46.90;33.30;;;;;;;12.56;100.00;99126.66;5095023;28;20077;-81
2022/10/15 08:00:34;;;;;;;43.38;32.65;;;;;;;12.62;100.00;99136.72;5091071;28;20422;-81
2022/10/15 08:03:00;;;;;;;42.08;32.17;;;;;;;12.68;100.00;99135.47;5082226;28;20031;-81
2022/10/15 08:05:25;;;;;;;44.75;32.80;;;;;;;12.74;100.00;99140.31;5082003;28;20020;-81
2022/10/15 08:07:50;;;;;;;44.60;33.00;;;;;;;12.76;100.00;99129.75;5089105;28;20036;-81
2022/10/15 08:10:17;;;;;;;44.25;31.90;;;;;;;12.78;100.00;99133.97;5094987;28;20032;-81
2022/10/15 08:12:42;;;;;;;44.22;32.88;;;;;;;12.79;100.00;99138.25;5095020;28;20016;-81
2022/10/15 08:15:08;;;;;;;42.65;32.95;;;;;;;12.77;100.00;99137.53;5095102;28;20030;-81
2022/10/15 08:17:34;;;;;;;41.85;31.73;;;;;;;12.81;100.00;99139.00;5095107;28;20016;-81
2022/10/15 08:19:59;;;;;;;46.00;32.35;;;;;;;12.77;100.00;99123.59;5094830;28;20463;-81
2022/10/15 08:22:24;;;;;;;44.63;32.00;;;;;;;12.85;100.00;99134.41;5094837;28;20505;-81
2022/10/15 08:24:51;;;;;;;44.17;30.92;;;;;;;12.97;100.00;99144.91;5094915;28;20046;-81
2022/10/15 08:27:16;;;;;;;40.03;31.10;;;;;;;12.98;100.00;99130.91;5093266;28;20375;-82
2022/10/15 08:29:42;;;;;;;45.42;33.10;;;;;;;13.07;100.00;99142.56;5094639;28;20027;-81
2022/10/15 08:32:07;;;;;;;43.22;31.85;;;;;;;13.15;100.00;99147.28;5094658;28;20451;-81
2022/10/15 08:34:32;;;;;;;49.15;33.65;;;;;;;13.14;100.00;99138.56;5094804;28;20347;-81
2022/10/15 08:36:58;;;;;;;44.55;32.75;;;;;;;13.20;100.00;99146.03;5094526;28;20020;-81
2022/10/15 08:39:24;;;;;;;45.90;33.30;;;;;;;13.18;100.00;99152.28;5094880;28;20028;-81
2022/10/15 08:41:57;;;;;;;45.60;34.22;;;;;;;13.19;100.00;99152.22;5094448;28;20024;-81
2022/10/15 08:44:28;;;;;;;49.13;36.30;;;;;;;13.31;100.00;99157.59;5093138;28;20031;-81
2022/10/15 08:47:25;;;;;;;53.20;36.63;;;;;;;13.30;100.00;99150.69;5094927;28;20107;-81
2022/10/15 08:49:54;;;;;;;48.38;33.53;;;;;;;13.36;100.00;99158.16;5094514;28;20073;-81
2022/10/15 08:52:55;;;;;;;47.05;34.15;;;;;;;13.40;100.00;99154.38;5093989;28;20107;-81
2022/10/15 08:55:21;;;;;;;49.38;35.22;;;;;;;13.50;100.00;99157.25;5031199;28;20045;-81
2022/10/15 08:57:59;;;;;;;47.42;35.28;;;;;;;13.52;100.00;99156.16;5031291;28;20091;-82
2022/10/15 09:00:32;;;;;;;48.83;34.85;;;;;;;13.56;100.00;99160.25;5024455;28;20030;-81
2022/10/15 09:03:03;;;;;;;48.28;34.67;;;;;;;13.57;100.00;99143.66;5011610;28;20473;-80
2022/10/15 09:05:40;;;;;;;46.70;34.95;;;;;;;13.53;100.00;99144.78;5011587;28;20041;-80
2022/10/15 09:08:28;;;;;;;44.17;33.47;;;;;;;13.58;100.00;99158.41;5011292;28;20045;-80
2022/10/15 09:10:58;;;;;;;44.25;33.05;;;;;;;13.60;100.00;99145.19;5011528;28;20541;-80
2022/10/15 09:13:34;;;;;;;51.17;36.00;;;;;;;13.76;100.00;99145.84;5011124;28;20052;-80
2022/10/15 09:16:14;;;;;;;44.38;31.00;;;;;;;13.97;100.00;99160.09;5011396;28;20544;-80
2022/10/15 09:18:43;;;;;;;40.90;31.70;;;;;;;14.16;100.00;99164.09;5011423;28;20065;-83
2022/10/15 09:21:10;;;;;;;41.17;30.73;;;;;;;14.33;100.00;99165.53;5011033;28;20509;-83
2022/10/15 09:23:36;;;;;;;40.80;31.13;;;;;;;14.40;100.00;99166.75;5011235;28;20026;-83
2022/10/15 09:26:15;;;;;;;43.53;32.35;;;;;;;14.40;100.00;99159.75;5036031;28;20028;-83
2022/10/15 09:29:02;;;;;;;45.38;31.42;;;;;;;14.45;100.00;99170.75;5073498;28;20039;-83
2022/10/15 09:31:55;;;;;;;46.40;32.85;;;;;;;14.27;100.00;99156.31;5073744;28;20097;-83
2022/10/15 09:34:34;;;;;;;49.00;34.00;;;;;;;14.32;100.00;99166.47;5073546;28;20028;-83
2022/10/15 09:37:08;;;;;;;48.10;35.17;;;;;;;14.23;100.00;99160.91;5073371;28;20368;-83
2022/10/15 09:39:51;;;;;;;49.72;34.55;;;;;;;14.32;100.00;99176.94;5073287;28;20052;-82
2022/10/15 09:42:30;;;;;;;47.20;34.28;;;;;;;14.25;100.00;99175.72;5072645;28;20413;-83
2022/10/15 09:45:05;;;;;;;50.00;36.38;;;;;;;14.27;100.00;99172.03;5073275;28;20081;-83
2022/10/15 09:47:34;;;;;;;50.85;37.65;;;;;;;14.16;100.00;99166.72;5030507;28;20037;-82
2022/10/15 09:50:03;;;;;;;44.47;33.95;;;;;;;14.24;100.00;99177.47;5030557;28;20073;-82
2022/10/15 09:52:39;;;;;;;49.05;36.13;;;;;;;14.25;100.00;99180.94;5030539;28;20037;-83
2022/10/15 09:55:39;;;;;;;43.83;34.15;;;;;;;14.30;100.00;99177.06;5030294;28;20029;-83
2022/10/15 09:58:28;;;;;;;52.15;36.95;;;;;;;14.16;100.00;99177.19;4971246;28;20045;-82
2022/10/15 10:01:06;;;;;;;47.92;34.60;;;;;;;14.24;100.00;99172.22;4955386;28;20122;-82
2022/10/15 10:03:33;;;;;;;74.85;61.25;;;;;;;14.41;100.00;99181.53;4933029;29;20032;-83
2022/10/15 10:06:03;;;;;;;52.65;38.22;;;;;;;14.55;100.00;99189.31;4933009;29;20303;-83
2022/10/15 10:08:36;;;;;;;49.30;38.10;;;;;;;14.50;100.00;99185.34;4932465;29;20480;-83
2022/10/15 10:11:03;;;;;;;47.28;36.47;;;;;;;14.45;100.00;99183.84;4932984;29;20146;-83
2022/10/15 10:13:38;;;;;;;44.58;34.17;;;;;;;14.50;100.00;99190.59;4932785;29;20122;-83
2022/10/15 10:16:12;;;;;;;45.75;34.53;;;;;;;14.48;100.00;99190.66;4932941;29;20379;-82
2022/10/15 10:18:38;;;;;;;45.40;33.08;;;;;;;14.40;100.00;99179.88;4964017;28;20034;-82
2022/10/15 10:21:27;;;;;;;40.78;31.15;;;;;;;14.45;100.00;99190.84;4990594;28;20219;-83
2022/10/15 10:23:53;;;;;;;40.13;32.20;;;;;;;14.42;100.00;99181.44;4990552;28;20058;-82
2022/10/15 10:26:19;;;;;;;41.50;31.55;;;;;;;14.42;100.00;99181.44;4990342;28;20485;-82
2022/10/15 10:28:51;;;;;;;37.50;29.30;;;;;;;14.47;100.00;99181.94;4967313;28;20046;-82
2022/10/15 10:31:25;;;;;;;37.38;28.30;;;;;;;14.49;100.00;99174.00;4971066;28;20378;-82
2022/10/15 10:33:51;;;;;;;40.15;31.80;;;;;;;14.47;100.00;99166.22;4985672;28;20041;-83
2022/10/15 10:36:33;;;;;;;39.45;29.80;;;;;;;14.56;100.00;99164.78;5072133;28;20025;-83
2022/10/15 10:39:13;;;;;;;36.13;29.40;;;;;;;14.58;100.00;99156.78;5072338;28;20416;-82
2022/10/15 10:41:55;;;;;;;37.33;28.65;;;;;;;14.67;100.00;99164.84;5072161;28;20052;-82
2022/10/15 10:44:35;;;;;;;36.83;27.75;;;;;;;14.78;100.00;99156.22;5071892;28;20031;-82
2022/10/15 10:47:07;;;;;;;34.97;27.33;;;;;;;14.93;100.00;99173.47;5071856;28;20534;-81
2022/10/15 10:49:39;;;;;;;33.72;27.25;;;;;;;14.95;100.00;99160.25;5072087;28;20095;-81
2022/10/15 10:52:05;;;;;;;28.15;23.80;;;;;;;15.04;100.00;99163.97;5072083;28;20472;-81
2022/10/15 10:54:32;;;;;;;30.15;24.00;;;;;;;15.13;100.00;99164.16;5071804;28;20028;-81
2022/10/15 10:56:58;;;;;;;29.38;21.70;;;;;;;15.26;100.00;99165.91;5071996;28;20032;-81
2022/10/15 10:59:35;;;;;;;27.17;21.95;;;;;;;15.37;100.00;99165.91;5071450;28;20027;-81
2022/10/15 11:02:03;;;;;;;25.48;21.35;;;;;;;15.33;100.00;99165.31;5071898;28;20096;-81
2022/10/15 11:04:32;;;;;;;25.38;20.52;;;;;;;15.38;100.00;99163.19;5071780;28;20119;-81
2022/10/15 11:07:31;;;;;;;23.42;19.02;;;;;;;15.56;100.00;99163.63;5070323;28;20357;-81
2022/10/15 11:10:10;;;;;;;23.90;20.52;;;;;;;15.62;100.00;99155.25;5071615;28;20017;-81
2022/10/15 11:12:44;;;;;;;24.77;20.63;;;;;;;15.76;100.00;99166.53;5071985;28;20460;-81
2022/10/15 11:15:30;;;;;;;20.75;18.55;;;;;;;15.81;100.00;99165.25;5071873;28;20592;-81
2022/10/15 11:18:11;;;;;;;23.10;19.13;;;;;;;15.98;100.00;99156.09;5071690;28;20056;-81
2022/10/15 11:20:46;;;;;;;20.63;18.17;;;;;;;16.13;100.00;99157.53;5074189;28;20031;-82